sensor_id;sensor_type;location;lat;lon;timestamp;temperature;humidity
72602;DHT22;60644;55.858;37.390;2022-12-18T00:00:41;-2.76;75.12
72602;DHT22;60644;55.858;37.390;2022-12-18T00:03:07;-2.73;75.02
72602;DHT22;60644;55.858;37.390;2022-12-18T00:05:33;-2.77;75.11
72602;DHT22;60644;55.858;37.390;2022-12-18T00:07:59;-2.77;75.04
72602;DHT22;60644;55.858;37.390;2022-12-18T00:10:25;-2.81;74.92
72602;DHT22;60644;55.858;37.390;2022-12-18T00:12:50;-2.76;75.06
72602;DHT22;60644;55.858;37.390;2022-12-18T00:15:16;-2.80;74.99
72602;DHT22;60644;55.858;37.390;2022-12-18T00:17:42;-2.82;75.12
72602;DHT22;60644;55.858;37.390;2022-12-18T00:20:08;-2.82;75.35
72602;DHT22;60644;55.858;37.390;2022-12-18T00:22:34;-2.79;75.44
72602;DHT22;60644;55.858;37.390;2022-12-18T00:25:00;-2.75;75.32
72602;DHT22;60644;55.858;37.390;2022-12-18T00:27:26;-2.76;75.07
72602;DHT22;60644;55.858;37.390;2022-12-18T00:29:52;-2.77;75.19
72602;DHT22;60644;55.858;37.390;2022-12-18T00:32:18;-2.74;75.10
72602;DHT22;60644;55.858;37.390;2022-12-18T00:34:43;-2.74;75.09
72602;DHT22;60644;55.858;37.390;2022-12-18T00:37:09;-2.71;74.69
72602;DHT22;60644;55.858;37.390;2022-12-18T00:39:35;-2.84;74.80
72602;DHT22;60644;55.858;37.390;2022-12-18T00:42:01;-2.83;74.82
72602;DHT22;60644;55.858;37.390;2022-12-18T00:44:47;-2.87;74.60
72602;DHT22;60644;55.858;37.390;2022-12-18T00:47:13;-2.89;74.72
72602;DHT22;60644;55.858;37.390;2022-12-18T00:49:38;-2.91;74.47
72602;DHT22;60644;55.858;37.390;2022-12-18T00:52:04;-2.97;74.29
72602;DHT22;60644;55.858;37.390;2022-12-18T00:54:30;-3.04;74.63
72602;DHT22;60644;55.858;37.390;2022-12-18T00:56:56;-3.03;74.47
72602;DHT22;60644;55.858;37.390;2022-12-18T00:59:22;-3.08;74.51
72602;DHT22;60644;55.858;37.390;2022-12-18T01:01:49;-3.08;74.63
72602;DHT22;60644;55.858;37.390;2022-12-18T01:04:15;-3.10;74.73
72602;DHT22;60644;55.858;37.390;2022-12-18T01:06:44;-3.10;74.67
72602;DHT22;60644;55.858;37.390;2022-12-18T01:09:11;-3.15;74.83
72602;DHT22;60644;55.858;37.390;2022-12-18T01:11:37;-3.15;74.86
72602;DHT22;60644;55.858;37.390;2022-12-18T01:14:04;-3.08;74.83
72602;DHT22;60644;55.858;37.390;2022-12-18T01:16:29;-3.13;74.61
72602;DHT22;60644;55.858;37.390;2022-12-18T01:18:56;-3.15;74.83
72602;DHT22;60644;55.858;37.390;2022-12-18T01:21:23;-3.24;74.51
72602;DHT22;60644;55.858;37.390;2022-12-18T01:23:54;-3.21;74.73
72602;DHT22;60644;55.858;37.390;2022-12-18T01:26:23;-3.19;74.92
72602;DHT22;60644;55.858;37.390;2022-12-18T01:28:50;-3.21;75.05
72602;DHT22;60644;55.858;37.390;2022-12-18T01:31:23;-3.17;74.47
72602;DHT22;60644;55.858;37.390;2022-12-18T01:33:50;-3.22;74.85
72602;DHT22;60644;55.858;37.390;2022-12-18T01:36:25;-3.24;74.86
72602;DHT22;60644;55.858;37.390;2022-12-18T01:38:52;-3.20;74.70
72602;DHT22;60644;55.858;37.390;2022-12-18T01:41:24;-3.25;74.60
72602;DHT22;60644;55.858;37.390;2022-12-18T01:43:57;-3.34;74.35
72602;DHT22;60644;55.858;37.390;2022-12-18T01:46:27;-3.32;74.60
72602;DHT22;60644;55.858;37.390;2022-12-18T01:49:01;-3.47;74.73
72602;DHT22;60644;55.858;37.390;2022-12-18T01:51:28;-3.34;75.05
72602;DHT22;60644;55.858;37.390;2022-12-18T01:53:55;-3.35;75.09
72602;DHT22;60644;55.858;37.390;2022-12-18T01:56:22;-3.42;74.74
72602;DHT22;60644;55.858;37.390;2022-12-18T01:58:56;-3.24;74.72
72602;DHT22;60644;55.858;37.390;2022-12-18T02:01:24;-3.33;74.61
72602;DHT22;60644;55.858;37.390;2022-12-18T02:03:51;-3.33;74.80
72602;DHT22;60644;55.858;37.390;2022-12-18T02:14:30;-3.38;74.54
72602;DHT22;60644;55.858;37.390;2022-12-18T02:28:12;-3.47;74.64
72602;DHT22;60644;55.858;37.390;2022-12-18T02:30:39;-3.39;74.31
72602;DHT22;60644;55.858;37.390;2022-12-18T02:33:08;-3.47;74.67
72602;DHT22;60644;55.858;37.390;2022-12-18T02:35:34;-3.56;75.05
72602;DHT22;60644;55.858;37.390;2022-12-18T02:38:03;-3.50;74.14
72602;DHT22;60644;55.858;37.390;2022-12-18T02:40:32;-3.56;74.88
72602;DHT22;60644;55.858;37.390;2022-12-18T02:43:18;-3.62;74.98
72602;DHT22;60644;55.858;37.390;2022-12-18T02:45:53;-3.53;75.23
72602;DHT22;60644;55.858;37.390;2022-12-18T02:48:24;-3.48;75.36
72602;DHT22;60644;55.858;37.390;2022-12-18T02:51:08;-3.50;74.95
72602;DHT22;60644;55.858;37.390;2022-12-18T02:53:58;-3.48;75.32
72602;DHT22;60644;55.858;37.390;2022-12-18T02:56:50;-3.45;75.03
72602;DHT22;60644;55.858;37.390;2022-12-18T02:59:21;-3.46;75.01
72602;DHT22;60644;55.858;37.390;2022-12-18T03:01:58;-3.48;75.23
72602;DHT22;60644;55.858;37.390;2022-12-18T03:04:31;-3.47;75.21
72602;DHT22;60644;55.858;37.390;2022-12-18T03:07:02;-3.42;75.18
72602;DHT22;60644;55.858;37.390;2022-12-18T03:09:38;-3.39;74.65
72602;DHT22;60644;55.858;37.390;2022-12-18T03:12:22;-3.52;74.83
72602;DHT22;60644;55.858;37.390;2022-12-18T03:17:27;-3.45;75.12
72602;DHT22;60644;55.858;37.390;2022-12-18T03:20:00;-3.45;74.94
72602;DHT22;60644;55.858;37.390;2022-12-18T03:22:33;-3.47;75.05
72602;DHT22;60644;55.858;37.390;2022-12-18T03:25:05;-3.45;74.86
72602;DHT22;60644;55.858;37.390;2022-12-18T03:27:36;-3.47;74.12
72602;DHT22;60644;55.858;37.390;2022-12-18T03:30:12;-3.54;74.50
72602;DHT22;60644;55.858;37.390;2022-12-18T03:32:50;-3.55;74.58
72602;DHT22;60644;55.858;37.390;2022-12-18T03:35:24;-3.56;74.67
72602;DHT22;60644;55.858;37.390;2022-12-18T03:37:52;-3.60;74.58
72602;DHT22;60644;55.858;37.390;2022-12-18T03:40:21;-3.68;73.85
72602;DHT22;60644;55.858;37.390;2022-12-18T03:42:55;-3.63;74.80
72602;DHT22;60644;55.858;37.390;2022-12-18T03:45:29;-3.57;74.75
72602;DHT22;60644;55.858;37.390;2022-12-18T03:48:06;-3.68;74.29
72602;DHT22;60644;55.858;37.390;2022-12-18T03:55:53;-3.63;74.89
72602;DHT22;60644;55.858;37.390;2022-12-18T03:58:24;-3.69;73.96
72602;DHT22;60644;55.858;37.390;2022-12-18T04:01:04;-3.72;74.87
72602;DHT22;60644;55.858;37.390;2022-12-18T04:03:35;-3.75;74.99
72602;DHT22;60644;55.858;37.390;2022-12-18T04:06:02;-3.83;75.30
72602;DHT22;60644;55.858;37.390;2022-12-18T04:08:29;-3.83;75.41
72602;DHT22;60644;55.858;37.390;2022-12-18T04:11:03;-3.81;75.67
72602;DHT22;60644;55.858;37.390;2022-12-18T04:13:32;-3.78;75.79
72602;DHT22;60644;55.858;37.390;2022-12-18T04:16:01;-3.79;75.89
72602;DHT22;60644;55.858;37.390;2022-12-18T04:18:27;-3.76;75.80
72602;DHT22;60644;55.858;37.390;2022-12-18T04:20:55;-3.79;75.80
72602;DHT22;60644;55.858;37.390;2022-12-18T04:23:22;-3.77;75.91
72602;DHT22;60644;55.858;37.390;2022-12-18T04:25:48;-3.75;75.90
72602;DHT22;60644;55.858;37.390;2022-12-18T04:28:21;-3.78;75.85
72602;DHT22;60644;55.858;37.390;2022-12-18T04:30:47;-3.75;75.60
72602;DHT22;60644;55.858;37.390;2022-12-18T04:33:13;-3.82;75.18
72602;DHT22;60644;55.858;37.390;2022-12-18T04:35:41;-3.85;75.29
72602;DHT22;60644;55.858;37.390;2022-12-18T04:38:08;-3.85;75.02
72602;DHT22;60644;55.858;37.390;2022-12-18T04:40:37;-3.78;75.98
72602;DHT22;60644;55.858;37.390;2022-12-18T04:43:10;-3.79;75.86
72602;DHT22;60644;55.858;37.390;2022-12-18T04:45:35;-3.80;75.91
72602;DHT22;60644;55.858;37.390;2022-12-18T04:48:02;-3.74;76.00
72602;DHT22;60644;55.858;37.390;2022-12-18T04:50:29;-3.82;75.76
72602;DHT22;60644;55.858;37.390;2022-12-18T04:52:55;-3.76;75.70
72602;DHT22;60644;55.858;37.390;2022-12-18T04:55:29;-3.82;75.28
72602;DHT22;60644;55.858;37.390;2022-12-18T04:57:55;-3.86;75.16
72602;DHT22;60644;55.858;37.390;2022-12-18T05:00:21;-3.84;75.24
72602;DHT22;60644;55.858;37.390;2022-12-18T05:02:48;-3.87;75.16
72602;DHT22;60644;55.858;37.390;2022-12-18T05:05:14;-3.90;74.89
72602;DHT22;60644;55.858;37.390;2022-12-18T05:07:40;-3.86;75.43
72602;DHT22;60644;55.858;37.390;2022-12-18T05:10:06;-3.84;75.22
72602;DHT22;60644;55.858;37.390;2022-12-18T05:12:32;-3.84;75.53
72602;DHT22;60644;55.858;37.390;2022-12-18T05:14:58;-3.84;75.30
72602;DHT22;60644;55.858;37.390;2022-12-18T05:17:24;-3.89;75.26
72602;DHT22;60644;55.858;37.390;2022-12-18T05:19:49;-3.76;75.50
72602;DHT22;60644;55.858;37.390;2022-12-18T05:22:15;-3.85;74.62
72602;DHT22;60644;55.858;37.390;2022-12-18T05:24:41;-3.85;74.58
72602;DHT22;60644;55.858;37.390;2022-12-18T05:27:07;-3.91;74.35
72602;DHT22;60644;55.858;37.390;2022-12-18T05:29:33;-3.91;73.98
72602;DHT22;60644;55.858;37.390;2022-12-18T05:31:59;-3.92;74.43
72602;DHT22;60644;55.858;37.390;2022-12-18T05:34:25;-3.83;74.91
72602;DHT22;60644;55.858;37.390;2022-12-18T05:36:50;-3.79;74.32
72602;DHT22;60644;55.858;37.390;2022-12-18T05:39:16;-3.87;73.99
72602;DHT22;60644;55.858;37.390;2022-12-18T05:41:42;-3.91;74.03
72602;DHT22;60644;55.858;37.390;2022-12-18T05:44:08;-3.91;74.36
72602;DHT22;60644;55.858;37.390;2022-12-18T05:46:34;-3.90;74.60
72602;DHT22;60644;55.858;37.390;2022-12-18T05:49:00;-3.87;74.30
72602;DHT22;60644;55.858;37.390;2022-12-18T05:51:29;-3.97;73.71
72602;DHT22;60644;55.858;37.390;2022-12-18T05:53:54;-3.99;74.37
72602;DHT22;60644;55.858;37.390;2022-12-18T05:56:22;-3.99;73.35
72602;DHT22;60644;55.858;37.390;2022-12-18T05:58:51;-4.09;73.37
72602;DHT22;60644;55.858;37.390;2022-12-18T06:01:21;-4.05;73.96
72602;DHT22;60644;55.858;37.390;2022-12-18T06:03:48;-4.04;74.34
72602;DHT22;60644;55.858;37.390;2022-12-18T06:06:18;-4.04;74.30
72602;DHT22;60644;55.858;37.390;2022-12-18T06:08:45;-4.08;74.27
72602;DHT22;60644;55.858;37.390;2022-12-18T06:11:11;-4.05;74.65
72602;DHT22;60644;55.858;37.390;2022-12-18T06:13:38;-4.08;74.51
72602;DHT22;60644;55.858;37.390;2022-12-18T06:16:04;-4.12;74.42
72602;DHT22;60644;55.858;37.390;2022-12-18T06:18:32;-4.15;74.62
72602;DHT22;60644;55.858;37.390;2022-12-18T06:20:59;-4.11;74.92
72602;DHT22;60644;55.858;37.390;2022-12-18T06:23:25;-4.12;74.80
72602;DHT22;60644;55.858;37.390;2022-12-18T06:25:51;-4.10;74.67
72602;DHT22;60644;55.858;37.390;2022-12-18T06:28:17;-4.09;74.97
72602;DHT22;60644;55.858;37.390;2022-12-18T06:30:44;-4.04;75.12
72602;DHT22;60644;55.858;37.390;2022-12-18T06:33:10;-4.07;74.98
72602;DHT22;60644;55.858;37.390;2022-12-18T06:35:36;-4.07;75.21
72602;DHT22;60644;55.858;37.390;2022-12-18T06:38:02;-4.04;75.20
72602;DHT22;60644;55.858;37.390;2022-12-18T06:40:29;-4.08;74.75
72602;DHT22;60644;55.858;37.390;2022-12-18T06:42:55;-4.07;74.99
72602;DHT22;60644;55.858;37.390;2022-12-18T06:45:20;-4.01;75.22
72602;DHT22;60644;55.858;37.390;2022-12-18T06:47:46;-3.98;74.73
72602;DHT22;60644;55.858;37.390;2022-12-18T06:50:12;-3.98;75.12
72602;DHT22;60644;55.858;37.390;2022-12-18T06:52:39;-3.97;74.73
72602;DHT22;60644;55.858;37.390;2022-12-18T06:55:09;-4.00;74.71
72602;DHT22;60644;55.858;37.390;2022-12-18T06:57:35;-3.96;74.25
72602;DHT22;60644;55.858;37.390;2022-12-18T07:00:01;-3.93;74.74
72602;DHT22;60644;55.858;37.390;2022-12-18T07:02:29;-3.91;74.36
72602;DHT22;60644;55.858;37.390;2022-12-18T07:04:55;-3.99;73.99
72602;DHT22;60644;55.858;37.390;2022-12-18T07:07:21;-3.98;74.25
72602;DHT22;60644;55.858;37.390;2022-12-18T07:09:48;-3.96;74.12
72602;DHT22;60644;55.858;37.390;2022-12-18T07:12:14;-4.02;72.36
72602;DHT22;60644;55.858;37.390;2022-12-18T07:14:40;-4.04;73.19
72602;DHT22;60644;55.858;37.390;2022-12-18T07:17:06;-3.95;74.07
72602;DHT22;60644;55.858;37.390;2022-12-18T07:19:34;-3.97;74.08
72602;DHT22;60644;55.858;37.390;2022-12-18T07:22:01;-3.90;73.66
72602;DHT22;60644;55.858;37.390;2022-12-18T07:24:26;-3.94;74.10
72602;DHT22;60644;55.858;37.390;2022-12-18T07:26:52;-3.85;73.63
72602;DHT22;60644;55.858;37.390;2022-12-18T07:29:18;-3.90;73.08
72602;DHT22;60644;55.858;37.390;2022-12-18T07:31:44;-3.97;72.03
72602;DHT22;60644;55.858;37.390;2022-12-18T07:34:14;-3.90;73.41
72602;DHT22;60644;55.858;37.390;2022-12-18T07:36:41;-3.82;73.52
72602;DHT22;60644;55.858;37.390;2022-12-18T07:39:07;-3.72;73.86
72602;DHT22;60644;55.858;37.390;2022-12-18T07:41:33;-3.68;73.31
72602;DHT22;60644;55.858;37.390;2022-12-18T07:44:10;-3.70;73.29
72602;DHT22;60644;55.858;37.390;2022-12-18T07:46:36;-3.60;73.54
72602;DHT22;60644;55.858;37.390;2022-12-18T07:49:02;-3.70;73.01
72602;DHT22;60644;55.858;37.390;2022-12-18T07:51:27;-3.67;73.05
72602;DHT22;60644;55.858;37.390;2022-12-18T07:53:53;-3.75;71.74
72602;DHT22;60644;55.858;37.390;2022-12-18T07:56:20;-3.62;73.57
72602;DHT22;60644;55.858;37.390;2022-12-18T07:58:49;-3.66;72.82
72602;DHT22;60644;55.858;37.390;2022-12-18T08:01:21;-3.70;72.93
72602;DHT22;60644;55.858;37.390;2022-12-18T08:03:47;-3.61;73.48
72602;DHT22;60644;55.858;37.390;2022-12-18T08:06:13;-3.62;73.45
72602;DHT22;60644;55.858;37.390;2022-12-18T08:08:39;-3.57;73.21
72602;DHT22;60644;55.858;37.390;2022-12-18T08:11:07;-3.55;73.03
72602;DHT22;60644;55.858;37.390;2022-12-18T08:13:33;-3.50;72.93
72602;DHT22;60644;55.858;37.390;2022-12-18T08:16:01;-3.57;72.68
72602;DHT22;60644;55.858;37.390;2022-12-18T08:18:27;-3.52;72.88
72602;DHT22;60644;55.858;37.390;2022-12-18T08:20:54;-3.50;72.73
72602;DHT22;60644;55.858;37.390;2022-12-18T08:23:20;-3.45;73.11
72602;DHT22;60644;55.858;37.390;2022-12-18T08:25:46;-3.46;72.67
72602;DHT22;60644;55.858;37.390;2022-12-18T08:28:12;-3.39;73.09
72602;DHT22;60644;55.858;37.390;2022-12-18T08:30:37;-3.49;71.77
72602;DHT22;60644;55.858;37.390;2022-12-18T08:33:04;-3.46;72.48
72602;DHT22;60644;55.858;37.390;2022-12-18T08:35:30;-3.37;72.78
72602;DHT22;60644;55.858;37.390;2022-12-18T08:37:56;-3.36;72.58
72602;DHT22;60644;55.858;37.390;2022-12-18T08:40:21;-3.35;73.10
72602;DHT22;60644;55.858;37.390;2022-12-18T08:42:47;-3.30;73.15
72602;DHT22;60644;55.858;37.390;2022-12-18T08:45:31;-3.21;72.05
72602;DHT22;60644;55.858;37.390;2022-12-18T08:47:57;-3.34;72.70
72602;DHT22;60644;55.858;37.390;2022-12-18T08:50:23;-3.33;72.92
72602;DHT22;60644;55.858;37.390;2022-12-18T08:52:49;-3.24;72.94
72602;DHT22;60644;55.858;37.390;2022-12-18T08:55:15;-3.30;72.17
72602;DHT22;60644;55.858;37.390;2022-12-18T08:57:41;-3.28;72.85
72602;DHT22;60644;55.858;37.390;2022-12-18T09:00:07;-3.25;72.76
72602;DHT22;60644;55.858;37.390;2022-12-18T09:02:33;-3.28;72.86
72602;DHT22;60644;55.858;37.390;2022-12-18T09:04:59;-3.26;72.80
72602;DHT22;60644;55.858;37.390;2022-12-18T09:07:25;-3.30;72.84
72602;DHT22;60644;55.858;37.390;2022-12-18T09:09:51;-3.27;72.92
72602;DHT22;60644;55.858;37.390;2022-12-18T09:12:17;-3.19;73.06
72602;DHT22;60644;55.858;37.390;2022-12-18T09:14:42;-3.19;72.92
72602;DHT22;60644;55.858;37.390;2022-12-18T09:17:08;-3.24;71.92
72602;DHT22;60644;55.858;37.390;2022-12-18T09:19:34;-3.32;71.90
72602;DHT22;60644;55.858;37.390;2022-12-18T09:22:00;-3.22;72.74
72602;DHT22;60644;55.858;37.390;2022-12-18T09:24:26;-3.24;72.74
72602;DHT22;60644;55.858;37.390;2022-12-18T09:26:55;-3.27;72.11
72602;DHT22;60644;55.858;37.390;2022-12-18T09:29:21;-3.25;73.66
72602;DHT22;60644;55.858;37.390;2022-12-18T09:31:47;-3.22;73.78
72602;DHT22;60644;55.858;37.390;2022-12-18T09:34:13;-3.17;73.54
72602;DHT22;60644;55.858;37.390;2022-12-18T09:36:39;-3.16;73.28
72602;DHT22;60644;55.858;37.390;2022-12-18T09:39:04;-3.12;73.15
72602;DHT22;60644;55.858;37.390;2022-12-18T09:47:09;-3.18;72.51
72602;DHT22;60644;55.858;37.390;2022-12-18T09:49:45;-3.20;72.65
72602;DHT22;60644;55.858;37.390;2022-12-18T09:52:19;-3.22;72.74
72602;DHT22;60644;55.858;37.390;2022-12-18T09:54:55;-3.17;72.93
72602;DHT22;60644;55.858;37.390;2022-12-18T09:57:24;-3.11;72.48
72602;DHT22;60644;55.858;37.390;2022-12-18T10:00:02;-3.00;73.02
72602;DHT22;60644;55.858;37.390;2022-12-18T10:02:37;-2.94;72.65
72602;DHT22;60644;55.858;37.390;2022-12-18T10:05:13;-3.02;71.85
72602;DHT22;60644;55.858;37.390;2022-12-18T10:07:55;-3.01;72.70
72602;DHT22;60644;55.858;37.390;2022-12-18T10:10:48;-3.07;72.82
72602;DHT22;60644;55.858;37.390;2022-12-18T10:13:38;-3.07;72.22
72602;DHT22;60644;55.858;37.390;2022-12-18T10:19:06;-3.11;73.13
72602;DHT22;60644;55.858;37.390;2022-12-18T10:27:30;-3.04;72.38
72602;DHT22;60644;55.858;37.390;2022-12-18T10:29:56;-3.02;72.79
72602;DHT22;60644;55.858;37.390;2022-12-18T10:32:28;-3.09;73.22
72602;DHT22;60644;55.858;37.390;2022-12-18T10:34:57;-3.08;72.95
72602;DHT22;60644;55.858;37.390;2022-12-18T10:37:28;-3.18;72.83
72602;DHT22;60644;55.858;37.390;2022-12-18T10:40:11;-3.23;72.70
72602;DHT22;60644;55.858;37.390;2022-12-18T10:42:37;-3.27;72.64
72602;DHT22;60644;55.858;37.390;2022-12-18T10:45:23;-3.40;72.97
72602;DHT22;60644;55.858;37.390;2022-12-18T10:47:50;-3.30;73.37
72602;DHT22;60644;55.858;37.390;2022-12-18T10:50:28;-3.33;73.38
72602;DHT22;60644;55.858;37.390;2022-12-18T10:52:57;-3.38;73.58
72602;DHT22;60644;55.858;37.390;2022-12-18T10:55:30;-3.38;73.73
72602;DHT22;60644;55.858;37.390;2022-12-18T10:58:18;-3.31;73.80
72602;DHT22;60644;55.858;37.390;2022-12-18T11:01:11;-3.33;74.12
72602;DHT22;60644;55.858;37.390;2022-12-18T11:03:40;-3.37;73.86
72602;DHT22;60644;55.858;37.390;2022-12-18T11:06:12;-3.33;73.61
72602;DHT22;60644;55.858;37.390;2022-12-18T11:08:41;-3.42;73.54
72602;DHT22;60644;55.858;37.390;2022-12-18T11:11:18;-3.43;74.16
72602;DHT22;60644;55.858;37.390;2022-12-18T11:16:20;-3.34;73.90
72602;DHT22;60644;55.858;37.390;2022-12-18T11:18:46;-3.32;73.68
72602;DHT22;60644;55.858;37.390;2022-12-18T11:21:13;-3.34;73.48
72602;DHT22;60644;55.858;37.390;2022-12-18T11:23:53;-3.37;73.60
72602;DHT22;60644;55.858;37.390;2022-12-18T11:26:20;-3.27;72.90
72602;DHT22;60644;55.858;37.390;2022-12-18T11:28:51;-3.31;73.42
72602;DHT22;60644;55.858;37.390;2022-12-18T11:31:25;-3.31;73.38
72602;DHT22;60644;55.858;37.390;2022-12-18T11:34:11;-3.39;72.21
72602;DHT22;60644;55.858;37.390;2022-12-18T11:36:43;-3.41;72.53
72602;DHT22;60644;55.858;37.390;2022-12-18T11:39:39;-3.25;73.74
72602;DHT22;60644;55.858;37.390;2022-12-18T11:42:32;-3.15;73.20
72602;DHT22;60644;55.858;37.390;2022-12-18T11:50:41;-3.18;73.27
72602;DHT22;60644;55.858;37.390;2022-12-18T11:53:11;-3.20;73.06
72602;DHT22;60644;55.858;37.390;2022-12-18T11:58:27;-3.13;73.06
72602;DHT22;60644;55.858;37.390;2022-12-18T12:01:12;-3.16;73.22
72602;DHT22;60644;55.858;37.390;2022-12-18T12:12:25;-3.09;72.95
72602;DHT22;60644;55.858;37.390;2022-12-18T12:15:03;-3.12;73.07
72602;DHT22;60644;55.858;37.390;2022-12-18T12:25:59;-3.27;72.93
72602;DHT22;60644;55.858;37.390;2022-12-18T12:33:40;-3.24;73.35
72602;DHT22;60644;55.858;37.390;2022-12-18T12:39:07;-3.23;73.56
72602;DHT22;60644;55.858;37.390;2022-12-18T12:41:37;-3.20;73.38
72602;DHT22;60644;55.858;37.390;2022-12-18T12:44:26;-3.24;73.36
72602;DHT22;60644;55.858;37.390;2022-12-18T12:46:58;-3.26;72.77
72602;DHT22;60644;55.858;37.390;2022-12-18T12:49:28;-3.22;73.03
72602;DHT22;60644;55.858;37.390;2022-12-18T12:52:20;-3.18;73.15
72602;DHT22;60644;55.858;37.390;2022-12-18T12:54:51;-3.13;73.27
72602;DHT22;60644;55.858;37.390;2022-12-18T13:00:17;-3.17;72.48
72602;DHT22;60644;55.858;37.390;2022-12-18T13:08:04;-3.12;73.12
72602;DHT22;60644;55.858;37.390;2022-12-18T13:10:36;-3.07;73.46
72602;DHT22;60644;55.858;37.390;2022-12-18T13:13:10;-3.06;73.22
72602;DHT22;60644;55.858;37.390;2022-12-18T13:15:43;-3.01;73.00
72602;DHT22;60644;55.858;37.390;2022-12-18T13:23:30;-2.90;72.10
72602;DHT22;60644;55.858;37.390;2022-12-18T13:25:59;-2.92;72.06
72602;DHT22;60644;55.858;37.390;2022-12-18T13:34:18;-2.97;71.39
72602;DHT22;60644;55.858;37.390;2022-12-18T13:36:45;-2.87;72.73
72602;DHT22;60644;55.858;37.390;2022-12-18T13:41:47;-3.02;70.77
72602;DHT22;60644;55.858;37.390;2022-12-18T13:46:55;-3.06;72.17
72602;DHT22;60644;55.858;37.390;2022-12-18T13:49:39;-3.05;72.38
72602;DHT22;60644;55.858;37.390;2022-12-18T13:52:36;-3.05;72.08
72602;DHT22;60644;55.858;37.390;2022-12-18T13:55:06;-3.08;71.66
72602;DHT22;60644;55.858;37.390;2022-12-18T13:57:35;-3.15;72.15
72602;DHT22;60644;55.858;37.390;2022-12-18T14:02:49;-3.06;71.99
72602;DHT22;60644;55.858;37.390;2022-12-18T14:05:29;-3.05;71.77
72602;DHT22;60644;55.858;37.390;2022-12-18T14:08:01;-3.03;72.08
72602;DHT22;60644;55.858;37.390;2022-12-18T14:10:28;-3.02;71.38
72602;DHT22;60644;55.858;37.390;2022-12-18T14:12:54;-3.09;69.87
72602;DHT22;60644;55.858;37.390;2022-12-18T14:20:44;-3.07;69.69
72602;DHT22;60644;55.858;37.390;2022-12-18T14:26:00;-3.09;71.11
72602;DHT22;60644;55.858;37.390;2022-12-18T14:28:27;-3.15;71.17
72602;DHT22;60644;55.858;37.390;2022-12-18T14:30:54;-3.26;69.19
72602;DHT22;60644;55.858;37.390;2022-12-18T14:33:24;-3.16;69.39
72602;DHT22;60644;55.858;37.390;2022-12-18T14:35:59;-3.21;68.87
72602;DHT22;60644;55.858;37.390;2022-12-18T14:38:37;-3.20;69.16
72602;DHT22;60644;55.858;37.390;2022-12-18T14:41:05;-3.22;69.16
72602;DHT22;60644;55.858;37.390;2022-12-18T14:43:36;-3.18;69.73
72602;DHT22;60644;55.858;37.390;2022-12-18T14:46:05;-3.18;69.79
72602;DHT22;60644;55.858;37.390;2022-12-18T14:48:40;-3.13;71.16
72602;DHT22;60644;55.858;37.390;2022-12-18T14:51:18;-3.20;70.68
72602;DHT22;60644;55.858;37.390;2022-12-18T14:53:47;-3.25;69.00
72602;DHT22;60644;55.858;37.390;2022-12-18T14:56:25;-3.28;68.52
72602;DHT22;60644;55.858;37.390;2022-12-18T14:58:58;-3.25;69.27
72602;DHT22;60644;55.858;37.390;2022-12-18T15:01:26;-3.31;68.72
72602;DHT22;60644;55.858;37.390;2022-12-18T15:03:55;-3.30;68.85
72602;DHT22;60644;55.858;37.390;2022-12-18T15:08:53;-3.37;68.39
72602;DHT22;60644;55.858;37.390;2022-12-18T15:11:33;-3.35;68.65
72602;DHT22;60644;55.858;37.390;2022-12-18T15:14:20;-3.42;68.36
72602;DHT22;60644;55.858;37.390;2022-12-18T15:16:53;-3.41;69.04
72602;DHT22;60644;55.858;37.390;2022-12-18T15:19:21;-3.36;70.67
72602;DHT22;60644;55.858;37.390;2022-12-18T15:21:48;-3.42;70.10
72602;DHT22;60644;55.858;37.390;2022-12-18T15:24:26;-3.43;69.59
72602;DHT22;60644;55.858;37.390;2022-12-18T15:26:53;-3.50;69.10
72602;DHT22;60644;55.858;37.390;2022-12-18T15:29:22;-3.56;69.29
72602;DHT22;60644;55.858;37.390;2022-12-18T15:32:17;-3.52;69.00
72602;DHT22;60644;55.858;37.390;2022-12-18T15:34:44;-3.52;69.16
72602;DHT22;60644;55.858;37.390;2022-12-18T15:37:11;-3.61;68.52
72602;DHT22;60644;55.858;37.390;2022-12-18T15:39:37;-3.72;68.74
72602;DHT22;60644;55.858;37.390;2022-12-18T15:42:07;-3.76;68.84
72602;DHT22;60644;55.858;37.390;2022-12-18T15:44:52;-3.95;68.62
72602;DHT22;60644;55.858;37.390;2022-12-18T15:47:18;-3.93;68.40
72602;DHT22;60644;55.858;37.390;2022-12-18T15:49:44;-3.99;68.01
72602;DHT22;60644;55.858;37.390;2022-12-18T15:52:12;-4.13;67.49
72602;DHT22;60644;55.858;37.390;2022-12-18T15:54:39;-4.23;67.63
72602;DHT22;60644;55.858;37.390;2022-12-18T15:57:49;-4.39;68.24
72602;DHT22;60644;55.858;37.390;2022-12-18T16:00:16;-4.46;68.49
72602;DHT22;60644;55.858;37.390;2022-12-18T16:02:43;-4.40;68.20
72602;DHT22;60644;55.858;37.390;2022-12-18T16:05:15;-4.67;67.30
72602;DHT22;60644;55.858;37.390;2022-12-18T16:07:45;-4.67;67.52
72602;DHT22;60644;55.858;37.390;2022-12-18T16:10:14;-4.66;66.84
72602;DHT22;60644;55.858;37.390;2022-12-18T16:12:41;-4.69;66.83
72602;DHT22;60644;55.858;37.390;2022-12-18T16:15:10;-4.93;66.17
72602;DHT22;60644;55.858;37.390;2022-12-18T16:17:40;-4.96;67.98
72602;DHT22;60644;55.858;37.390;2022-12-18T16:20:17;-4.91;67.00
72602;DHT22;60644;55.858;37.390;2022-12-18T16:22:45;-4.85;66.96
72602;DHT22;60644;55.858;37.390;2022-12-18T16:25:22;-4.89;65.96
72602;DHT22;60644;55.858;37.390;2022-12-18T16:27:50;-4.90;65.35
72602;DHT22;60644;55.858;37.390;2022-12-18T16:30:19;-5.03;64.63
72602;DHT22;60644;55.858;37.390;2022-12-18T16:32:46;-5.13;65.24
72602;DHT22;60644;55.858;37.390;2022-12-18T16:35:14;-5.20;65.38
72602;DHT22;60644;55.858;37.390;2022-12-18T16:37:41;-5.26;65.25
72602;DHT22;60644;55.858;37.390;2022-12-18T16:40:11;-5.30;65.30
72602;DHT22;60644;55.858;37.390;2022-12-18T16:42:40;-5.35;64.90
72602;DHT22;60644;55.858;37.390;2022-12-18T16:45:12;-5.43;65.38
72602;DHT22;60644;55.858;37.390;2022-12-18T16:47:39;-5.44;65.69
72602;DHT22;60644;55.858;37.390;2022-12-18T16:50:08;-5.44;65.53
72602;DHT22;60644;55.858;37.390;2022-12-18T16:52:35;-5.68;65.25
72602;DHT22;60644;55.858;37.390;2022-12-18T16:55:02;-5.60;65.51
72602;DHT22;60644;55.858;37.390;2022-12-18T16:57:31;-5.69;65.40
72602;DHT22;60644;55.858;37.390;2022-12-18T16:59:57;-5.75;65.40
72602;DHT22;60644;55.858;37.390;2022-12-18T17:02:25;-5.91;65.62
72602;DHT22;60644;55.858;37.390;2022-12-18T17:04:55;-5.92;65.88
72602;DHT22;60644;55.858;37.390;2022-12-18T17:07:22;-5.84;67.85
72602;DHT22;60644;55.858;37.390;2022-12-18T17:09:48;-5.97;66.72
72602;DHT22;60644;55.858;37.390;2022-12-18T17:12:19;-5.93;67.02
72602;DHT22;60644;55.858;37.390;2022-12-18T17:14:45;-5.93;66.65
72602;DHT22;60644;55.858;37.390;2022-12-18T17:17:11;-5.89;66.89
72602;DHT22;60644;55.858;37.390;2022-12-18T17:19:37;-5.84;66.93
72602;DHT22;60644;55.858;37.390;2022-12-18T17:22:03;-5.84;66.04
72602;DHT22;60644;55.858;37.390;2022-12-18T17:24:29;-5.88;65.87
72602;DHT22;60644;55.858;37.390;2022-12-18T17:26:55;-5.93;66.51